createdAt,value
2019-04-21T00:00:07.185Z,9.70
2019-04-21T00:02:37.492Z,9.70
2019-04-21T00:05:24.746Z,9.60
2019-04-21T00:08:05.027Z,9.70
2019-04-21T00:10:36.379Z,9.50
2019-04-21T00:12:57.405Z,9.50
2019-04-21T00:15:20.469Z,9.50
2019-04-21T00:17:49.790Z,9.40
2019-04-21T00:20:27.441Z,9.40
2019-04-21T00:22:58.755Z,9.50
2019-04-21T00:25:36.182Z,9.50
2019-04-21T00:28:17.009Z,9.50
2019-04-21T00:30:47.046Z,9.50
2019-04-21T00:33:05.268Z,9.40
2019-04-21T00:35:28.963Z,9.30
2019-04-21T00:38:19.074Z,9.30
2019-04-21T00:40:56.636Z,9.20
2019-04-21T00:43:19.593Z,9.00
2019-04-21T00:45:47.081Z,8.90
2019-04-21T00:48:27.334Z,8.90
2019-04-21T00:51:14.597Z,8.90
2019-04-21T00:53:38.389Z,8.90
2019-04-21T00:58:33.156Z,9.00
2019-04-21T01:01:28.415Z,9.10
2019-04-21T01:03:57.866Z,9.00
2019-04-21T01:06:29.143Z,8.80
2019-04-21T01:09:01.246Z,8.80
2019-04-21T01:11:42.578Z,8.80
2019-04-21T01:14:09.184Z,8.80
2019-04-21T01:16:39.269Z,8.60
2019-04-21T01:19:05.064Z,8.50
2019-04-21T01:21:15.136Z,8.40
2019-04-21T01:23:44.658Z,8.40
2019-04-21T01:26:29.617Z,8.50
2019-04-21T01:29:08.317Z,8.60
2019-04-21T01:31:36.585Z,8.60
2019-04-21T01:34:09.511Z,8.60
2019-04-21T01:36:41.532Z,8.60
2019-04-21T01:39:19.639Z,8.60
2019-04-21T01:41:46.302Z,8.60
2019-04-21T01:44:19.673Z,8.50
2019-04-21T01:46:45.882Z,8.50
2019-04-21T01:49:11.513Z,8.50
2019-04-21T01:52:03.100Z,8.30
2019-04-21T01:54:31.471Z,8.20
2019-04-21T01:57:04.335Z,8.20
2019-04-21T01:59:28.310Z,8.10
2019-04-21T02:02:06.225Z,8.00
2019-04-21T02:04:41.826Z,8.00
2019-04-21T02:07:11.477Z,8.00
2019-04-21T02:09:56.806Z,8.00
2019-04-21T02:12:14.763Z,7.90
2019-04-21T02:14:50.358Z,7.90
2019-04-21T02:17:13.325Z,7.90
2019-04-21T02:19:43.411Z,7.80
2019-04-21T02:22:47.407Z,7.70
2019-04-21T02:25:15.135Z,7.60
2019-04-21T02:28:05.590Z,7.60
2019-04-21T02:30:49.286Z,7.50
2019-04-21T02:33:18.527Z,7.60
2019-04-21T02:38:16.543Z,7.50
2019-04-21T02:43:18.614Z,7.40
2019-04-21T02:48:27.913Z,7.40
2019-04-21T02:50:50.078Z,7.30
2019-04-21T02:54:11.931Z,7.30
2019-04-21T02:56:01.618Z,7.30
2019-04-21T02:58:57.001Z,7.20
2019-04-21T03:01:12.448Z,7.20
2019-04-21T03:03:41.793Z,7.10
2019-04-21T03:06:15.396Z,7.10
2019-04-21T03:11:19.517Z,7.00
2019-04-21T03:14:07.143Z,7.00
2019-04-21T03:19:07.214Z,6.80
2019-04-21T03:21:38.263Z,6.80
2019-04-21T03:24:13.787Z,6.70
2019-04-21T03:26:48.369Z,6.70
2019-04-21T03:29:12.604Z,6.60
2019-04-21T03:42:18.754Z,6.50
2019-04-21T03:44:40.000Z,6.50
2019-04-21T03:47:02.177Z,6.50
2019-04-21T03:49:43.709Z,6.60
2019-04-21T03:52:03.201Z,6.50
2019-04-21T03:54:37.365Z,6.40
2019-04-21T03:59:40.656Z,6.40
2019-04-21T04:02:14.824Z,6.40
2019-04-21T04:07:25.065Z,6.30
2019-04-21T04:10:08.405Z,6.30
2019-04-21T04:12:19.025Z,6.30
2019-04-21T04:14:50.168Z,6.20
2019-04-21T04:17:25.545Z,6.20
2019-04-21T04:20:01.102Z,6.10
2019-04-21T04:22:43.434Z,6.10
2019-04-21T04:27:49.482Z,6.10
2019-04-21T04:30:18.700Z,6.10
2019-04-21T04:37:46.980Z,6.00
2019-04-21T04:40:19.676Z,6.00
2019-04-21T04:45:30.624Z,6.00
2019-04-21T04:47:59.793Z,5.90
2019-04-21T04:50:29.900Z,5.90
2019-04-21T04:53:03.578Z,5.90
2019-04-21T04:55:31.957Z,5.90
2019-04-21T05:00:34.483Z,6.00
2019-04-21T05:05:53.251Z,6.20
2019-04-21T05:08:33.529Z,6.20
2019-04-21T05:13:26.009Z,6.40
2019-04-21T05:16:06.219Z,6.50
2019-04-21T05:18:40.170Z,6.60
2019-04-21T05:21:09.051Z,6.70
2019-04-21T05:23:28.771Z,6.90
2019-04-21T05:25:45.870Z,7.00
2019-04-21T05:28:16.663Z,7.10
2019-04-21T05:31:06.310Z,7.20
2019-04-21T05:33:39.864Z,7.20
2019-04-21T05:36:15.550Z,7.20
2019-04-21T05:38:41.845Z,7.40
2019-04-21T05:41:13.066Z,7.50
2019-04-21T05:43:51.705Z,7.40
2019-04-21T05:46:25.375Z,7.20
2019-04-21T05:48:52.294Z,7.30
2019-04-21T05:51:25.780Z,7.40
2019-04-21T05:54:09.291Z,7.50
2019-04-21T05:56:31.864Z,7.90
2019-04-21T05:59:03.396Z,8.30
2019-04-21T06:04:07.254Z,8.80
2019-04-21T06:06:43.591Z,8.90
2019-04-21T06:09:11.037Z,8.90
2019-04-21T06:11:36.034Z,9.00
2019-04-21T06:14:14.006Z,9.20
2019-04-21T06:16:49.842Z,9.60
2019-04-21T06:19:11.385Z,9.80
2019-04-21T06:21:45.189Z,10.10
2019-04-21T06:24:18.697Z,10.30
2019-04-21T06:27:00.423Z,10.60
2019-04-21T06:29:23.738Z,10.70
2019-04-21T06:34:51.724Z,11.30
2019-04-21T06:37:34.975Z,11.60
2019-04-21T06:39:51.663Z,12.00
2019-04-21T06:42:18.429Z,12.30
2019-04-21T06:47:27.667Z,13.10
2019-04-21T06:49:42.817Z,13.40
2019-04-21T06:52:42.308Z,13.90
2019-04-21T06:54:54.888Z,14.50
2019-04-21T06:57:22.144Z,15.20
2019-04-21T06:59:54.280Z,16.50
2019-04-21T07:05:00.471Z,20.40
2019-04-21T07:07:27.869Z,22.20
2019-04-21T07:10:22.845Z,22.20
2019-04-21T07:12:56.286Z,21.50
2019-04-21T07:15:25.181Z,18.80
2019-04-21T07:18:00.158Z,18.60
2019-04-21T07:20:31.442Z,19.90
2019-04-21T07:23:07.006Z,20.20
2019-04-21T07:25:34.277Z,21.00
2019-04-21T07:28:03.059Z,19.20
2019-04-21T07:33:37.782Z,19.90
2019-04-21T07:35:37.333Z,21.70
2019-04-21T07:38:11.638Z,20.40
2019-04-21T07:40:36.586Z,19.70
2019-04-21T07:43:05.632Z,20.00
2019-04-21T07:45:38.727Z,19.30
2019-04-21T07:48:16.056Z,19.70
2019-04-21T07:50:51.936Z,19.40
2019-04-21T07:53:27.747Z,20.10
2019-04-21T07:55:59.536Z,22.60
2019-04-21T07:58:45.585Z,23.50
2019-04-21T08:01:18.267Z,25.40
2019-04-21T08:03:46.587Z,28.10
2019-04-21T08:06:24.117Z,23.20
2019-04-21T08:08:49.023Z,22.90
2019-04-21T08:11:16.698Z,24.70
2019-04-21T08:13:55.157Z,23.40
2019-04-21T08:16:25.675Z,22.60
2019-04-21T08:18:52.461Z,21.70
2019-04-21T08:21:20.740Z,21.80
2019-04-21T08:23:55.277Z,23.50
2019-04-21T08:26:34.238Z,25.40
2019-04-21T08:29:06.691Z,28.70
2019-04-21T08:31:34.050Z,28.40
2019-04-21T08:34:12.618Z,29.20
2019-04-21T08:36:44.904Z,26.80
2019-04-21T08:39:07.334Z,24.40
2019-04-21T08:41:57.162Z,25.40
2019-04-21T08:44:36.042Z,25.60
2019-04-21T08:46:58.899Z,26.80
2019-04-21T08:49:26.448Z,26.90
2019-04-21T08:52:15.226Z,24.80
2019-04-21T08:54:38.368Z,24.20
2019-04-21T08:57:34.041Z,25.80
2019-04-21T09:00:01.496Z,26.30
2019-04-21T09:02:35.171Z,27.30
2019-04-21T09:04:58.639Z,27.30
2019-04-21T09:10:02.955Z,26.60
2019-04-21T09:12:34.618Z,27.30
2019-04-21T09:15:06.383Z,27.40
2019-04-21T09:17:28.679Z,28.50
2019-04-21T09:20:33.333Z,29.40
2019-04-21T09:23:03.595Z,30.80
2019-04-21T09:25:38.979Z,31.50
2019-04-21T09:28:00.807Z,31.90
2019-04-21T09:30:19.826Z,32.40
2019-04-21T09:32:53.060Z,31.20
2019-04-21T09:35:22.317Z,31.40
2019-04-21T09:38:00.328Z,31.90
2019-04-21T09:40:37.998Z,32.00
2019-04-21T09:43:06.496Z,30.10
2019-04-21T09:45:54.128Z,28.80
2019-04-21T09:48:24.747Z,29.10
2019-04-21T09:50:55.160Z,27.60
2019-04-21T09:53:33.244Z,26.50
2019-04-21T09:56:01.738Z,26.20
2019-04-21T09:58:34.841Z,26.60
2019-04-21T10:01:13.571Z,28.30
2019-04-21T10:03:59.690Z,27.20
2019-04-21T10:06:26.038Z,25.60
2019-04-21T10:09:01.310Z,26.00
2019-04-21T10:11:27.131Z,26.40
2019-04-21T10:13:56.671Z,25.90
2019-04-21T10:16:27.740Z,27.30
2019-04-21T10:18:57.237Z,27.30
2019-04-21T10:21:28.032Z,27.20
2019-04-21T10:24:04.267Z,26.80
2019-04-21T10:26:33.800Z,26.60
2019-04-21T10:29:08.277Z,27.00
2019-04-21T10:31:34.667Z,28.20
2019-04-21T10:34:05.267Z,29.50
2019-04-21T10:36:35.149Z,29.10
2019-04-21T10:39:07.194Z,29.40
2019-04-21T10:41:45.631Z,29.00
2019-04-21T10:44:16.889Z,29.90
2019-04-21T10:46:50.010Z,28.20
2019-04-21T10:49:22.534Z,27.40
2019-04-21T10:51:52.972Z,28.10
2019-04-21T10:54:24.063Z,27.60
2019-04-21T10:56:56.705Z,27.50
2019-04-21T10:59:26.847Z,28.10
2019-04-21T11:01:56.827Z,27.50
2019-04-21T11:04:33.661Z,28.20
2019-04-21T11:07:06.779Z,28.20
2019-04-21T11:09:32.218Z,28.20
2019-04-21T11:12:02.095Z,28.50
2019-04-21T11:14:31.904Z,29.20
2019-04-21T11:17:04.021Z,29.70
2019-04-21T11:19:34.774Z,29.40
2019-04-21T11:22:05.048Z,30.30
2019-04-21T11:24:36.725Z,30.20
2019-04-21T11:27:06.750Z,29.00
2019-04-21T11:29:37.145Z,28.40
2019-04-21T11:32:07.221Z,27.80
2019-04-21T11:34:36.832Z,27.50
2019-04-21T11:37:28.202Z,27.90
2019-04-21T11:40:03.978Z,27.90
2019-04-21T11:42:30.705Z,29.20
2019-04-21T11:45:08.461Z,28.60
2019-04-21T11:47:40.688Z,29.10
2019-04-21T11:50:11.026Z,28.40
2019-04-21T11:53:01.124Z,28.60
2019-04-21T11:55:34.294Z,28.50
2019-04-21T11:58:03.475Z,27.80
2019-04-21T12:00:33.647Z,27.80
2019-04-21T12:03:03.767Z,28.10
2019-04-21T12:05:33.678Z,27.40
2019-04-21T12:08:16.196Z,28.00
2019-04-21T12:10:55.562Z,27.90
2019-04-21T12:13:25.132Z,29.00
2019-04-21T12:15:54.896Z,29.70
2019-04-21T12:18:26.667Z,27.60
2019-04-21T12:21:15.749Z,27.00
2019-04-21T12:23:45.519Z,26.40
2019-04-21T12:26:15.942Z,26.50
2019-04-21T12:28:45.962Z,27.20
2019-04-21T12:31:17.844Z,27.30
2019-04-21T12:33:49.812Z,27.80
2019-04-21T12:36:22.127Z,27.20
2019-04-21T12:38:56.287Z,28.10
2019-04-21T12:41:24.666Z,28.40
2019-04-21T12:43:54.949Z,28.30
2019-04-21T12:46:25.709Z,28.00
2019-04-21T12:48:55.876Z,27.90
2019-04-21T12:51:26.006Z,27.50
2019-04-21T12:53:55.672Z,26.50
2019-04-21T12:56:45.590Z,27.10
2019-04-21T12:59:15.202Z,28.30
2019-04-21T13:02:04.067Z,29.20
2019-04-21T13:04:33.647Z,29.10
2019-04-21T13:07:03.994Z,29.40
2019-04-21T13:09:34.367Z,28.20
2019-04-21T13:12:05.430Z,27.30
2019-04-21T13:14:36.111Z,27.50
2019-04-21T13:17:05.791Z,28.50
2019-04-21T13:19:35.694Z,29.50
2019-04-21T13:22:06.249Z,29.00
2019-04-21T13:24:36.033Z,27.80
2019-04-21T13:27:07.480Z,28.90
2019-04-21T13:29:38.470Z,28.30
2019-04-21T13:32:08.901Z,28.20
2019-04-21T13:34:59.108Z,28.60
2019-04-21T13:37:29.736Z,28.10
2019-04-21T13:40:27.510Z,28.90
2019-04-21T13:42:41.974Z,29.20
2019-04-21T13:45:10.091Z,29.00
2019-04-21T13:47:40.768Z,30.00
2019-04-21T13:50:31.090Z,28.90
2019-04-21T13:53:20.867Z,28.70
2019-04-21T13:55:50.893Z,28.90
2019-04-21T13:58:20.401Z,28.20
2019-04-21T14:00:50.554Z,27.50
2019-04-21T14:03:23.439Z,26.90
2019-04-21T14:05:54.030Z,27.10
2019-04-21T14:08:25.154Z,27.10
2019-04-21T14:11:15.483Z,27.20
2019-04-21T14:13:45.158Z,27.40
2019-04-21T14:16:15.933Z,28.00
2019-04-21T14:18:45.830Z,28.20
2019-04-21T14:21:15.520Z,28.80
2019-04-21T14:23:49.004Z,27.70
2019-04-21T14:26:18.462Z,27.10
2019-04-21T14:28:49.175Z,28.20
2019-04-21T14:31:20.091Z,28.30
2019-04-21T14:33:50.070Z,28.20
2019-04-21T14:36:20.950Z,28.50
2019-04-21T14:38:50.700Z,28.10
2019-04-21T14:41:20.181Z,27.60
2019-04-21T14:43:51.157Z,27.30
2019-04-21T14:46:22.255Z,27.60
2019-04-21T14:49:13.071Z,28.30
2019-04-21T14:51:45.354Z,28.20
2019-04-21T14:54:17.317Z,27.90
2019-04-21T14:56:47.298Z,28.20
2019-04-21T14:59:17.237Z,27.10
2019-04-21T15:01:46.802Z,25.90
2019-04-21T15:04:35.731Z,25.50
2019-04-21T15:07:05.899Z,25.00
2019-04-21T15:09:37.668Z,24.80
2019-04-21T15:12:09.765Z,24.90
2019-04-21T15:14:40.293Z,24.80
2019-04-21T15:17:10.027Z,24.50
2019-04-21T15:19:42.922Z,24.50
2019-04-21T15:22:10.772Z,24.70
2019-04-21T15:25:00.638Z,24.60
2019-04-21T15:27:50.674Z,24.40
2019-04-21T15:30:20.842Z,24.30
2019-04-21T15:32:50.678Z,24.10
2019-04-21T15:35:40.662Z,24.20
2019-04-21T15:38:11.585Z,24.20
2019-04-21T15:40:49.652Z,24.00
2019-04-21T15:43:15.261Z,23.90
2019-04-21T15:45:46.791Z,24.00
2019-04-21T15:48:16.370Z,23.90
2019-04-21T15:50:46.026Z,23.90
2019-04-21T15:53:17.275Z,23.90
2019-04-21T15:55:48.727Z,24.10
2019-04-21T15:58:20.612Z,24.00
2019-04-21T16:01:12.314Z,24.00
2019-04-21T16:03:42.855Z,24.20
2019-04-21T16:06:32.010Z,23.90
2019-04-21T16:09:03.275Z,23.80
2019-04-21T16:11:53.507Z,23.90
2019-04-21T16:14:24.706Z,23.70
2019-04-21T16:16:54.348Z,23.90
2019-04-21T16:19:24.918Z,23.70
2019-04-21T16:21:54.772Z,23.70
2019-04-21T16:24:25.312Z,23.70
2019-04-21T16:26:56.359Z,23.80
2019-04-21T16:29:27.242Z,23.80
2019-04-21T16:31:57.395Z,23.80
2019-04-21T16:34:37.854Z,23.60
2019-04-21T16:36:59.467Z,23.60
2019-04-21T16:39:29.419Z,23.60
2019-04-21T16:42:00.304Z,23.50
2019-04-21T16:44:31.331Z,23.40
2019-04-21T16:47:01.397Z,23.40
2019-04-21T16:49:31.743Z,23.30
2019-04-21T16:52:04.074Z,23.20
2019-04-21T16:54:33.782Z,23.20
2019-04-21T16:57:05.962Z,23.20
2019-04-21T16:59:37.306Z,23.20
2019-04-21T17:02:07.113Z,23.20
2019-04-21T17:04:36.573Z,23.20
2019-04-21T17:07:07.340Z,23.20
2019-04-21T17:09:36.994Z,23.20
2019-04-21T17:12:10.386Z,23.10
2019-04-21T17:14:53.514Z,23.00
2019-04-21T17:17:32.305Z,22.90
2019-04-21T17:19:45.581Z,22.80
2019-04-21T17:22:13.609Z,22.80
2019-04-21T17:24:44.393Z,22.70
2019-04-21T17:27:15.390Z,22.70
2019-04-21T17:29:46.343Z,22.70
2019-04-21T17:32:16.477Z,22.60
2019-04-21T17:34:46.325Z,22.50
2019-04-21T17:37:17.495Z,22.40
2019-04-21T17:39:49.088Z,22.40
2019-04-21T17:42:29.744Z,22.40
2019-04-21T17:44:52.993Z,22.40
2019-04-21T17:47:36.442Z,22.30
2019-04-21T17:50:02.684Z,22.20
2019-04-21T17:52:37.914Z,22.20
2019-04-21T17:55:16.824Z,22.10
2019-04-21T17:57:57.150Z,22.00
2019-04-21T18:00:52.045Z,21.90
2019-04-21T18:03:01.747Z,21.80
2019-04-21T18:05:40.972Z,21.70
2019-04-21T18:08:02.818Z,21.60
2019-04-21T18:10:36.817Z,21.50
2019-04-21T18:12:59.162Z,21.40
2019-04-21T18:15:42.414Z,21.20
2019-04-21T18:17:54.576Z,21.10
2019-04-21T18:20:26.188Z,21.00
2019-04-21T18:22:59.022Z,20.80
2019-04-21T18:25:44.440Z,20.60
2019-04-21T18:28:02.939Z,20.40
2019-04-21T18:33:21.282Z,20.00
2019-04-21T18:35:48.486Z,19.90
2019-04-21T18:38:56.955Z,19.70
2019-04-21T18:41:17.413Z,19.60
2019-04-21T18:44:19.751Z,19.40
2019-04-21T18:46:51.232Z,19.20
2019-04-21T18:48:59.004Z,19.00
2019-04-21T18:51:41.017Z,18.80
2019-04-21T18:54:25.406Z,18.60
2019-04-21T18:56:33.863Z,18.50
2019-04-21T18:59:04.446Z,18.40
2019-04-21T19:01:36.548Z,18.20
2019-04-21T19:04:12.442Z,18.10
2019-04-21T19:06:56.201Z,17.90
2019-04-21T19:09:44.568Z,17.70
2019-04-21T19:12:00.733Z,17.50
2019-04-21T19:17:15.960Z,17.10
2019-04-21T19:22:10.461Z,16.90
2019-04-21T19:24:41.372Z,16.80
2019-04-21T19:27:12.080Z,16.70
2019-04-21T19:29:51.916Z,16.60
2019-04-21T19:32:45.714Z,16.50
2019-04-21T19:34:51.272Z,16.40
2019-04-21T19:37:22.948Z,16.20
2019-04-21T19:40:03.549Z,16.00
2019-04-21T19:42:32.257Z,15.90
2019-04-21T19:45:05.266Z,15.70
2019-04-21T19:47:44.429Z,15.60
2019-04-21T19:50:21.724Z,15.50
2019-04-21T19:52:39.880Z,15.40
2019-04-21T19:54:58.647Z,15.30
2019-04-21T19:57:49.180Z,15.20
2019-04-21T20:00:19.440Z,15.20
2019-04-21T20:02:50.284Z,15.10
2019-04-21T20:05:32.688Z,15.00
2019-04-21T20:08:08.272Z,14.90
2019-04-21T20:10:44.445Z,14.80
2019-04-21T20:13:26.240Z,14.80
2019-04-21T20:15:45.971Z,14.70
2019-04-21T20:18:14.045Z,14.70
2019-04-21T20:20:30.974Z,14.70
2019-04-21T20:23:03.048Z,14.60
2019-04-21T20:25:41.821Z,14.60
2019-04-21T20:28:13.318Z,14.40
2019-04-21T20:30:56.012Z,14.30
2019-04-21T20:36:23.804Z,14.20
2019-04-21T20:38:40.792Z,14.20
2019-04-21T20:41:33.833Z,14.10
2019-04-21T20:44:11.940Z,14.10
2019-04-21T20:46:39.885Z,13.90
2019-04-21T20:49:08.365Z,13.80
2019-04-21T20:51:45.181Z,13.80
2019-04-21T20:54:16.050Z,13.70
2019-04-21T20:56:45.981Z,13.70
2019-04-21T20:59:28.788Z,13.60
2019-04-21T21:02:06.872Z,13.60
2019-04-21T21:04:31.287Z,13.60
2019-04-21T21:07:41.670Z,13.50
2019-04-21T21:10:00.394Z,13.50
2019-04-21T21:12:39.107Z,13.40
2019-04-21T21:14:57.574Z,13.30
2019-04-21T21:17:46.726Z,13.00
2019-04-21T21:20:07.585Z,13.00
2019-04-21T21:22:35.118Z,13.00
2019-04-21T21:25:06.180Z,13.00
2019-04-21T21:27:33.398Z,13.00
2019-04-21T21:30:09.721Z,12.90
2019-04-21T21:32:42.797Z,12.90
2019-04-21T21:35:33.551Z,12.90
2019-04-21T21:38:08.373Z,12.90
2019-04-21T21:40:30.445Z,12.80
2019-04-21T21:42:49.560Z,12.70
2019-04-21T21:45:22.320Z,12.60
2019-04-21T21:48:15.032Z,12.60
2019-04-21T21:50:29.852Z,12.60
2019-04-21T21:53:04.277Z,12.50
2019-04-21T21:55:44.957Z,12.40
2019-04-21T21:58:19.377Z,12.30
2019-04-21T22:00:52.885Z,12.10
2019-04-21T22:03:27.434Z,12.10
2019-04-21T22:05:59.797Z,12.10
2019-04-21T22:08:22.508Z,12.10
2019-04-21T22:10:52.993Z,12.10
2019-04-21T22:13:34.123Z,12.10
2019-04-21T22:15:56.471Z,12.10
2019-04-21T22:18:42.082Z,12.00
2019-04-21T22:21:11.489Z,11.90
2019-04-21T22:23:39.931Z,11.90
2019-04-21T22:26:01.019Z,11.90
2019-04-21T22:28:31.604Z,11.80
2019-04-21T22:31:08.167Z,11.80
2019-04-21T22:33:56.424Z,11.70
2019-04-21T22:36:35.429Z,11.60
2019-04-21T22:39:15.081Z,11.50
2019-04-21T22:41:48.418Z,11.40
2019-04-21T22:44:20.557Z,11.20
2019-04-21T22:46:58.135Z,11.10
2019-04-21T22:49:23.587Z,11.10
2019-04-21T22:52:11.109Z,11.10
2019-04-21T22:54:40.894Z,11.10
2019-04-21T22:57:14.841Z,11.00
2019-04-21T22:59:40.453Z,10.90
2019-04-21T23:02:17.643Z,11.00
2019-04-21T23:04:46.159Z,10.90
2019-04-21T23:07:15.858Z,10.90
2019-04-21T23:09:45.506Z,10.80
2019-04-21T23:12:38.176Z,10.70
2019-04-21T23:15:34.617Z,10.60
2019-04-21T23:18:13.012Z,10.60
2019-04-21T23:20:47.733Z,10.50
2019-04-21T23:23:16.129Z,10.60
2019-04-21T23:25:45.942Z,10.50
2019-04-21T23:28:15.790Z,10.50
2019-04-21T23:31:11.096Z,10.50
2019-04-21T23:33:28.980Z,10.60
2019-04-21T23:36:07.420Z,10.60
2019-04-21T23:38:39.682Z,10.60
2019-04-21T23:41:21.481Z,10.50
2019-04-21T23:44:13.552Z,10.50
2019-04-21T23:46:42.629Z,10.60
2019-04-21T23:49:26.896Z,10.50
2019-04-21T23:51:51.172Z,10.50
2019-04-21T23:54:15.700Z,10.60
2019-04-21T23:57:14.151Z,10.60
2019-04-21T23:59:42.199Z,10.60
